Time;durP1;ratioP1;P1;durP2;ratioP2;P2;SDS_P1;SDS_P2;PMS_P1;PMS_P2;Temp;Humidity;BMP_temperature;BMP_pressure;BME280_temperature;BME280_humidity;BME280_pressure;Samples;Min_cycle;Max_cycle;Signal;HPM_P1;HPM_P2
2021/08/17 00:02:59;;;;;;;2.83;1.70;;;20.10;99.90;;;;;;6313163;28;20230;-61
2021/08/17 00:06:03;;;;;;;2.30;1.50;;;20.20;99.90;;;;;;6306823;28;20231;-60
2021/08/17 00:09:07;;;;;;;3.20;1.70;;;20.30;99.90;;;;;;6309632;28;20234;-61
2021/08/17 00:12:10;;;;;;;3.93;1.57;;;20.40;99.90;;;;;;6312435;28;20231;-61
2021/08/17 00:15:15;;;;;;;3.13;1.53;;;20.40;99.90;;;;;;6312795;28;20244;-61
2021/08/17 00:18:18;;;;;;;1.63;1.20;;;20.40;99.90;;;;;;6312474;28;20229;-61
2021/08/17 00:21:21;;;;;;;2.07;1.50;;;20.20;99.90;;;;;;6310555;28;20222;-61
2021/08/17 00:24:24;;;;;;;2.80;1.43;;;20.10;99.90;;;;;;6311060;28;20238;-61
2021/08/17 00:27:27;;;;;;;2.00;1.17;;;19.90;99.90;;;;;;6317402;28;20233;-61
2021/08/17 00:30:32;;;;;;;1.80;1.20;;;19.90;99.90;;;;;;6333866;27;20193;-61
2021/08/17 00:33:35;;;;;;;2.37;1.50;;;19.90;99.90;;;;;;6337487;28;20223;-61
2021/08/17 00:36:38;;;;;;;1.80;1.60;;;19.80;99.90;;;;;;6337064;27;20221;-61
2021/08/17 00:39:41;;;;;;;2.30;1.70;;;19.60;99.90;;;;;;6332145;27;20240;-61
2021/08/17 00:42:46;;;;;;;2.43;1.30;;;19.50;99.90;;;;;;6331228;27;20609;-61
2021/08/17 00:45:51;;;;;;;2.50;1.20;;;19.40;99.90;;;;;;6335058;28;20659;-61
2021/08/17 00:48:54;;;;;;;2.00;1.10;;;19.40;99.90;;;;;;6326374;28;20232;-61
2021/08/17 00:52:00;;;;;;;1.70;1.47;;;19.20;99.90;;;;;;6317310;28;20237;-61
2021/08/17 00:55:04;;;;;;;2.60;1.03;;;19.20;99.90;;;;;;6317166;28;20676;-61
2021/08/17 00:58:07;;;;;;;2.17;1.17;;;19.10;99.90;;;;;;6311079;28;20237;-61
2021/08/17 01:01:12;;;;;;;2.50;1.33;;;18.80;99.90;;;;;;6311072;28;20555;-61
2021/08/17 01:04:15;;;;;;;1.70;1.00;;;18.80;99.90;;;;;;6311376;28;20249;-61
2021/08/17 01:07:18;;;;;;;2.70;1.10;;;18.80;99.90;;;;;;6310994;28;20234;-61
2021/08/17 01:10:22;;;;;;;2.47;1.43;;;18.80;99.90;;;;;;6301285;28;20226;-61
2021/08/17 01:13:28;;;;;;;1.50;1.40;;;18.80;99.90;;;;;;6298775;28;20476;-61
2021/08/17 01:16:33;;;;;;;1.40;0.90;;;18.70;99.90;;;;;;6298541;28;20222;-61
2021/08/17 01:19:36;;;;;;;2.07;1.37;;;18.80;99.90;;;;;;6298810;28;20231;-61
2021/08/17 01:22:40;;;;;;;2.30;1.17;;;18.90;99.90;;;;;;6310476;28;20232;-61
2021/08/17 01:25:45;;;;;;;1.90;1.20;;;19.00;99.90;;;;;;6298865;28;20235;-61
2021/08/17 01:28:48;;;;;;;2.00;1.07;;;19.00;99.90;;;;;;6297894;28;20235;-61
2021/08/17 01:31:52;;;;;;;0.63;0.63;;;19.10;99.90;;;;;;6298602;28;20230;-61
2021/08/17 01:34:55;;;;;;;1.87;1.20;;;19.00;99.90;;;;;;6310245;28;20226;-61
2021/08/17 01:38:03;;;;;;;2.07;0.90;;;19.00;99.90;;;;;;6310579;28;20234;-61
2021/08/17 01:41:07;;;;;;;1.40;0.97;;;19.00;99.90;;;;;;6310384;28;20687;-61
2021/08/17 01:44:12;;;;;;;2.00;1.07;;;19.00;99.90;;;;;;6310583;28;20235;-61
2021/08/17 01:47:15;;;;;;;1.40;1.30;;;19.10;99.90;;;;;;6310277;28;20227;-61
2021/08/17 01:50:18;;;;;;;2.27;1.37;;;19.10;99.90;;;;;;6310980;28;20242;-61
2021/08/17 01:53:23;;;;;;;1.93;1.07;;;19.30;99.90;;;;;;6312309;28;20572;-61
2021/08/17 01:56:27;;;;;;;2.60;1.17;;;19.50;99.90;;;;;;6315309;28;20230;-62
2021/08/17 01:59:33;;;;;;;1.77;1.53;;;19.60;99.90;;;;;;6315179;28;20234;-61
2021/08/17 02:02:37;;;;;;;1.60;1.23;;;19.60;99.90;;;;;;6314709;28;20541;-61
2021/08/17 02:05:40;;;;;;;1.70;1.10;;;19.60;99.90;;;;;;6314905;28;20234;-61
2021/08/17 02:08:43;;;;;;;1.13;0.90;;;19.50;99.90;;;;;;6314390;28;20618;-61
2021/08/17 02:11:48;;;;;;;1.73;1.20;;;19.50;99.90;;;;;;6314743;28;20230;-61
2021/08/17 02:14:51;;;;;;;2.50;0.90;;;19.50;99.90;;;;;;6302063;28;20285;-61
2021/08/17 02:17:54;;;;;;;1.73;1.40;;;19.50;99.90;;;;;;6302233;28;20246;-61
2021/08/17 02:20:58;;;;;;;2.07;1.33;;;19.40;99.90;;;;;;6301882;28;20333;-61
2021/08/17 02:24:02;;;;;;;1.40;1.30;;;19.30;99.90;;;;;;6314036;28;20649;-61
2021/08/17 02:27:07;;;;;;;1.63;1.53;;;19.20;99.90;;;;;;6314632;28;20232;-61
2021/08/17 02:30:10;;;;;;;3.50;1.10;;;19.10;99.90;;;;;;6314926;28;20617;-61
2021/08/17 02:33:14;;;;;;;2.80;1.23;;;19.00;99.90;;;;;;6314548;28;20580;-61
2021/08/17 02:36:17;;;;;;;1.10;0.90;;;18.90;99.90;;;;;;6314244;28;20242;-61
2021/08/17 02:39:20;;;;;;;2.33;0.90;;;18.90;99.90;;;;;;6314257;28;20571;-61
2021/08/17 02:42:24;;;;;;;2.30;1.20;;;19.00;99.90;;;;;;6313613;28;20567;-61
2021/08/17 02:45:28;;;;;;;1.50;1.37;;;18.90;99.90;;;;;;6314153;28;20597;-61
2021/08/17 02:48:31;;;;;;;1.27;1.17;;;18.80;99.90;;;;;;6313603;28;20805;-61
2021/08/17 02:51:34;;;;;;;1.63;1.27;;;18.80;99.90;;;;;;6314077;28;20210;-61
2021/08/17 02:54:40;;;;;;;1.47;1.10;;;18.80;99.90;;;;;;6301497;28;20203;-62
2021/08/17 02:57:53;;;;;;;1.10;1.00;;;18.80;99.90;;;;;;6301187;28;20551;-61
2021/08/17 03:00:57;;;;;;;2.90;1.30;;;18.80;99.90;;;;;;6305744;28;20472;-61
2021/08/17 03:04:00;;;;;;;2.50;0.90;;;18.80;99.90;;;;;;6313939;28;20465;-61
2021/08/17 03:07:04;;;;;;;1.77;1.20;;;18.70;99.90;;;;;;6313049;28;20959;-61
2021/08/17 03:10:07;;;;;;;1.30;1.20;;;18.80;99.90;;;;;;6314133;28;20230;-61
2021/08/17 03:13:12;;;;;;;1.73;1.30;;;18.80;99.90;;;;;;6313681;28;20241;-61
2021/08/17 03:16:15;;;;;;;1.43;1.10;;;18.80;99.90;;;;;;6301132;28;20242;-61
2021/08/17 03:19:18;;;;;;;2.00;1.13;;;18.80;99.90;;;;;;6296124;28;20279;-61
2021/08/17 03:22:22;;;;;;;2.83;1.37;;;18.60;99.90;;;;;;6300902;28;20473;-61
2021/08/17 03:25:26;;;;;;;1.60;1.20;;;18.60;99.90;;;;;;6308774;28;20603;-61
2021/08/17 03:28:31;;;;;;;1.40;1.10;;;18.70;99.90;;;;;;6300373;28;20227;-62
2021/08/17 03:31:34;;;;;;;1.97;1.53;;;18.80;99.90;;;;;;6300691;28;20461;-61
2021/08/17 03:34:37;;;;;;;1.67;1.10;;;18.90;99.90;;;;;;6300044;28;20266;-61
2021/08/17 03:37:41;;;;;;;2.47;1.57;;;19.00;99.90;;;;;;6308699;28;20245;-61
2021/08/17 03:40:45;;;;;;;1.60;1.30;;;19.00;99.90;;;;;;6312770;28;20545;-61
2021/08/17 03:43:49;;;;;;;2.27;1.73;;;19.00;99.90;;;;;;6312996;28;20286;-60
2021/08/17 03:46:52;;;;;;;2.53;1.13;;;18.80;99.90;;;;;;6313024;28;20288;-61
2021/08/17 03:49:58;;;;;;;3.83;1.20;;;18.80;99.90;;;;;;6312868;28;20815;-62
2021/08/17 03:53:01;;;;;;;2.70;1.30;;;18.80;99.90;;;;;;6312159;28;20230;-61
2021/08/17 03:56:05;;;;;;;1.40;1.10;;;18.70;99.90;;;;;;6312320;28;20242;-61
2021/08/17 03:59:10;;;;;;;3.53;2.27;;;18.80;99.90;;;;;;6311911;28;20472;-61
2021/08/17 04:02:13;;;;;;;2.30;1.33;;;18.80;99.90;;;;;;6312324;28;20485;-61
2021/08/17 04:05:16;;;;;;;4.07;1.60;;;18.80;99.90;;;;;;6311886;28;20549;-61
2021/08/17 04:08:19;;;;;;;4.47;1.37;;;18.60;99.90;;;;;;6312264;28;20676;-61
2021/08/17 04:11:22;;;;;;;1.70;1.10;;;18.60;99.90;;;;;;6312407;28;20473;-61
2021/08/17 04:14:27;;;;;;;2.93;1.90;;;18.60;99.90;;;;;;6312143;28;20480;-61
2021/08/17 04:17:30;;;;;;;2.63;1.57;;;18.50;99.90;;;;;;6311637;28;20493;-61
2021/08/17 04:20:35;;;;;;;3.13;1.53;;;18.50;99.90;;;;;;6298821;28;20468;-61
2021/08/17 04:23:38;;;;;;;3.00;1.20;;;18.40;99.90;;;;;;6289798;28;20461;-61
2021/08/17 04:26:41;;;;;;;1.90;1.27;;;18.40;99.90;;;;;;6298917;28;20473;-61
2021/08/17 04:29:46;;;;;;;2.83;1.73;;;18.40;99.90;;;;;;6307516;28;20973;-61
2021/08/17 04:32:49;;;;;;;4.20;1.87;;;18.40;99.90;;;;;;6311545;28;20481;-61
2021/08/17 04:35:52;;;;;;;1.50;1.20;;;18.40;99.90;;;;;;6311760;28;20479;-61
2021/08/17 04:38:55;;;;;;;2.03;1.37;;;18.40;99.90;;;;;;6311443;28;20235;-61
2021/08/17 04:41:59;;;;;;;2.50;1.80;;;18.40;99.90;;;;;;6311677;28;20472;-61
2021/08/17 04:45:04;;;;;;;1.77;1.50;;;18.40;99.90;;;;;;6311445;28;20487;-61
2021/08/17 04:48:07;;;;;;;2.73;1.30;;;18.30;99.90;;;;;;6298893;28;20469;-61
2021/08/17 04:51:10;;;;;;;2.23;1.43;;;18.30;99.90;;;;;;6298602;28;20231;-61
2021/08/17 04:54:13;;;;;;;2.60;1.90;;;18.40;99.90;;;;;;6305158;28;20481;-61
2021/08/17 04:57:17;;;;;;;2.10;2.00;;;18.40;99.90;;;;;;6311161;28;20483;-61
2021/08/17 05:00:22;;;;;;;3.20;1.80;;;18.40;99.90;;;;;;6310590;28;20852;-61
2021/08/17 05:03:26;;;;;;;2.80;1.83;;;18.40;99.90;;;;;;6310299;28;20792;-61
2021/08/17 05:06:29;;;;;;;3.20;2.00;;;18.60;99.90;;;;;;6309880;28;20791;-61
2021/08/17 05:09:32;;;;;;;2.40;1.53;;;18.80;99.90;;;;;;6310618;28;20452;-61
2021/08/17 05:12:36;;;;;;;3.33;1.40;;;19.10;99.90;;;;;;6310656;28;20629;-62
2021/08/17 05:15:41;;;;;;;2.40;1.83;;;19.30;99.90;;;;;;6311106;28;20207;-61
2021/08/17 05:18:45;;;;;;;1.70;1.47;;;19.50;99.90;;;;;;6310752;28;20680;-62
2021/08/17 05:21:48;;;;;;;2.33;1.80;;;19.50;99.90;;;;;;6311162;28;20230;-61
2021/08/17 05:24:51;;;;;;;3.70;1.57;;;19.70;99.90;;;;;;6306218;28;20228;-61
2021/08/17 05:27:54;;;;;;;4.40;1.90;;;19.80;99.90;;;;;;6311876;28;20226;-62
2021/08/17 05:30:59;;;;;;;4.63;1.63;;;19.90;99.90;;;;;;6315336;28;20225;-62
2021/08/17 05:34:03;;;;;;;5.93;2.50;;;20.00;99.90;;;;;;6315687;28;20271;-61
2021/08/17 05:37:06;;;;;;;2.40;2.10;;;20.10;99.90;;;;;;6315318;28;20233;-61
2021/08/17 05:40:11;;;;;;;5.30;2.30;;;20.20;99.90;;;;;;6315214;28;20222;-61
2021/08/17 05:43:14;;;;;;;4.30;2.20;;;20.20;99.90;;;;;;6315709;28;20222;-61
2021/08/17 05:46:38;;;;;;;2.90;2.17;;;20.20;99.90;;;;;;6303188;28;20231;-61
2021/08/17 05:49:42;;;;;;;4.73;1.80;;;20.30;99.90;;;;;;6302793;28;20238;-61
2021/08/17 05:52:45;;;;;;;2.03;1.80;;;20.20;99.90;;;;;;6302624;28;20688;-61
2021/08/17 05:55:48;;;;;;;3.07;2.27;;;20.20;99.90;;;;;;6303038;28;20239;-61
2021/08/17 05:58:52;;;;;;;3.07;2.10;;;20.30;99.90;;;;;;6314974;28;20234;-61
2021/08/17 06:01:57;;;;;;;2.27;1.83;;;20.30;99.90;;;;;;6313750;28;20245;-61
2021/08/17 06:05:00;;;;;;;3.10;2.23;;;20.40;99.90;;;;;;6314805;28;20242;-61
2021/08/17 06:08:04;;;;;;;2.50;1.90;;;20.50;99.90;;;;;;6314706;28;20241;-61
2021/08/17 06:11:07;;;;;;;3.03;1.93;;;20.60;99.90;;;;;;6302265;28;20227;-61
2021/08/17 06:14:10;;;;;;;2.20;2.00;;;20.70;99.90;;;;;;6302200;28;20231;-61
2021/08/17 06:17:15;;;;;;;3.30;2.00;;;20.80;99.90;;;;;;6337457;28;20222;-62
2021/08/17 06:20:18;;;;;;;4.70;2.17;;;20.80;99.90;;;;;;6341336;28;20218;-61
2021/08/17 06:23:21;;;;;;;2.13;1.60;;;20.90;99.90;;;;;;6336188;28;20229;-61
2021/08/17 06:26:24;;;;;;;2.30;1.80;;;20.90;99.90;;;;;;6334073;28;20218;-62
2021/08/17 06:29:27;;;;;;;2.90;1.93;;;20.80;99.90;;;;;;6341701;28;20682;-62
2021/08/17 06:32:32;;;;;;;4.30;2.17;;;20.70;99.90;;;;;;6326518;28;20257;-61
2021/08/17 06:35:35;;;;;;;5.43;2.27;;;20.80;99.90;;;;;;6343244;27;20286;-61
2021/08/17 06:38:38;;;;;;;4.93;1.63;;;20.80;99.90;;;;;;6340272;27;20287;-62
2021/08/17 06:41:41;;;;;;;5.17;2.17;;;20.90;99.90;;;;;;6336233;28;20225;-62
2021/08/17 06:44:45;;;;;;;8.20;2.90;;;20.90;99.90;;;;;;6336884;27;20218;-61
2021/08/17 06:47:50;;;;;;;4.90;1.97;;;21.00;99.90;;;;;;6335571;28;20226;-61
2021/08/17 06:51:13;;;;;;;2.33;1.70;;;21.10;99.90;;;;;;6343188;27;20257;-61
2021/08/17 06:54:17;;;;;;;5.23;2.33;;;21.20;99.90;;;;;;6339861;28;20214;-61
2021/08/17 06:57:20;;;;;;;5.50;2.47;;;21.30;99.90;;;;;;6323033;27;20576;-61
2021/08/17 07:00:23;;;;;;;3.00;2.03;;;21.50;99.90;;;;;;6313962;28;20608;-61
2021/08/17 07:03:28;;;;;;;4.83;1.77;;;21.60;99.90;;;;;;6313701;28;20233;-61
2021/08/17 07:06:34;;;;;;;4.03;2.47;;;21.80;99.70;;;;;;6313830;28;20238;-61
2021/08/17 07:09:38;;;;;;;2.90;2.50;;;22.50;98.80;;;;;;6300071;28;20209;-61
2021/08/17 07:12:41;;;;;;;3.33;2.07;;;23.10;98.30;;;;;;6300740;28;20211;-62
2021/08/17 07:15:44;;;;;;;2.97;2.00;;;25.00;96.70;;;;;;6303881;28;20234;-61
2021/08/17 07:18:49;;;;;;;5.33;1.93;;;27.80;91.20;;;;;;6313916;28;20225;-62
2021/08/17 07:21:53;;;;;;;3.83;2.30;;;29.90;81.10;;;;;;6300124;28;20287;-62
2021/08/17 07:24:56;;;;;;;3.70;2.00;;;31.40;69.50;;;;;;6300783;28;20222;-62
2021/08/17 07:27:59;;;;;;;2.92;1.98;;;32.50;60.60;;;;;;6300341;28;20635;-62
2021/08/17 07:31:03;;;;;;;5.20;1.77;;;33.90;54.80;;;;;;6312309;28;20225;-62
2021/08/17 07:34:07;;;;;;;2.70;2.22;;;33.80;51.40;;;;;;6296171;28;20325;-62
2021/08/17 07:37:10;;;;;;;2.67;1.80;;;33.20;49.70;;;;;;6300123;28;20226;-62
2021/08/17 07:40:15;;;;;;;3.28;1.65;;;34.60;48.10;;;;;;6300245;28;20260;-62
2021/08/17 07:43:19;;;;;;;3.15;1.75;;;36.20;45.30;;;;;;6311818;28;20221;-62
2021/08/17 07:46:22;;;;;;;3.90;1.75;;;37.50;42.90;;;;;;6312163;28;20221;-62
2021/08/17 07:49:27;;;;;;;1.60;1.30;;;38.30;40.40;;;;;;6312076;28;20228;-62
2021/08/17 07:52:31;;;;;;;1.30;0.90;;;39.10;37.00;;;;;;6312451;28;20236;-63
2021/08/17 07:55:35;;;;;;;1.65;0.93;;;38.90;34.20;;;;;;6311486;28;20245;-63
2021/08/17 07:58:38;;;;;;;2.75;1.20;;;36.90;35.80;;;;;;6311713;28;20237;-63
2021/08/17 08:01:41;;;;;;;1.42;0.80;;;35.00;39.10;;;;;;6311704;28;20604;-63
2021/08/17 08:04:46;;;;;;;2.10;1.38;;;35.60;40.10;;;;;;6314053;28;20232;-62
2021/08/17 08:07:49;;;;;;;2.28;0.80;;;36.70;38.40;;;;;;6321157;28;20229;-69
2021/08/17 08:10:52;;;;;;;1.85;0.93;;;37.20;37.20;;;;;;6319556;28;20230;-64
2021/08/17 08:13:57;;;;;;;2.15;1.08;;;36.50;36.00;;;;;;6331650;28;20220;-64
2021/08/17 08:17:02;;;;;;;1.33;0.73;;;34.80;38.00;;;;;;6338372;27;20667;-63
2021/08/17 08:20:08;;;;;;;0.90;0.45;;;32.90;39.70;;;;;;6321397;28;20259;-62
2021/08/17 08:23:11;;;;;;;0.90;0.40;;;31.10;40.90;;;;;;6311471;28;20230;-63
2021/08/17 08:26:14;;;;;;;1.73;0.50;;;29.80;42.80;;;;;;6311778;28;20540;-61
2021/08/17 08:29:17;;;;;;;0.80;0.33;;;29.10;44.10;;;;;;6310619;28;20244;-62
2021/08/17 08:32:21;;;;;;;0.90;0.70;;;28.30;44.80;;;;;;6311844;28;20233;-62
2021/08/17 08:35:25;;;;;;;1.00;0.50;;;27.80;45.60;;;;;;6311329;28;20225;-62
2021/08/17 08:38:28;;;;;;;1.20;0.53;;;27.30;46.00;;;;;;6298778;28;20241;-61
2021/08/17 08:41:32;;;;;;;0.73;0.47;;;27.20;46.90;;;;;;6290240;28;20245;-61
2021/08/17 08:44:35;;;;;;;0.80;0.40;;;27.00;46.60;;;;;;6312594;28;20249;-62
2021/08/17 08:47:41;;;;;;;0.93;0.33;;;26.60;47.50;;;;;;6310640;28;20234;-60
2021/08/17 08:50:46;;;;;;;1.07;0.47;;;26.20;48.40;;;;;;6298379;28;20237;-62
2021/08/17 08:53:50;;;;;;;1.03;0.40;;;25.90;49.00;;;;;;6298174;28;20227;-61
2021/08/17 08:56:53;;;;;;;1.23;0.37;;;25.70;49.50;;;;;;6298587;28;20233;-65
2021/08/17 08:59:56;;;;;;;1.60;0.50;;;25.40;50.60;;;;;;6309923;28;20228;-65
2021/08/17 09:03:00;;;;;;;1.20;0.60;;;25.30;51.50;;;;;;6310264;28;20261;-65
2021/08/17 09:06:16;;;;;;;1.40;0.50;;;25.20;50.90;;;;;;6307569;28;20555;-66
2021/08/17 09:09:20;;;;;;;1.00;0.40;;;25.10;51.50;;;;;;6311174;28;20229;-65
2021/08/17 09:12:34;;;;;;;1.10;0.70;;;25.50;52.30;;;;;;6306382;28;20233;-65
2021/08/17 09:15:38;;;;;;;0.83;0.40;;;26.40;49.20;;;;;;6311004;28;20230;-61
2021/08/17 09:18:41;;;;;;;1.10;0.40;;;27.40;48.20;;;;;;6311699;28;20550;-62
2021/08/17 09:21:46;;;;;;;1.73;0.57;;;28.40;46.90;;;;;;6310491;28;20210;-61
2021/08/17 09:24:51;;;;;;;1.00;0.43;;;29.60;45.10;;;;;;6310592;28;20228;-61
2021/08/17 09:27:54;;;;;;;1.00;0.40;;;30.50;42.60;;;;;;6309920;28;20237;-62
2021/08/17 09:30:59;;;;;;;5.00;0.60;;;30.80;40.90;;;;;;6310357;28;20228;-62
2021/08/17 09:34:03;;;;;;;0.98;0.65;;;31.20;40.10;;;;;;6310842;28;20218;-60
2021/08/17 09:37:10;;;;;;;1.27;0.60;;;31.40;40.70;;;;;;6310791;28;20233;-62
2021/08/17 09:40:15;;;;;;;0.70;0.50;;;31.40;40.10;;;;;;6310666;28;20236;-66
2021/08/17 09:43:21;;;;;;;1.15;0.50;;;30.80;38.70;;;;;;6293510;28;20234;-60
2021/08/17 09:46:29;;;;;;;3.17;0.67;;;30.40;40.40;;;;;;6307176;28;20230;-60
2021/08/17 09:49:33;;;;;;;0.93;0.70;;;30.10;38.90;;;;;;6310684;28;20229;-58
2021/08/17 09:52:37;;;;;;;0.80;0.47;;;29.70;39.60;;;;;;6309635;28;20229;-58
2021/08/17 09:55:46;;;;;;;0.93;0.57;;;29.40;41.10;;;;;;6310197;28;20232;-59
2021/08/17 09:58:49;;;;;;;1.10;0.50;;;29.30;40.80;;;;;;6309568;28;20645;-59
2021/08/17 10:01:53;;;;;;;0.80;0.50;;;29.30;41.10;;;;;;6310728;28;20686;-59
2021/08/17 10:04:57;;;;;;;0.87;0.60;;;29.00;41.10;;;;;;6297642;28;20341;-62
2021/08/17 10:08:01;;;;;;;0.80;0.50;;;28.90;42.00;;;;;;6297562;28;20226;-60
2021/08/17 10:11:04;;;;;;;1.07;0.60;;;28.80;41.90;;;;;;6300503;28;20229;-59
2021/08/17 10:14:12;;;;;;;0.80;0.40;;;28.60;42.00;;;;;;6311770;28;20229;-60
2021/08/17 10:17:15;;;;;;;0.90;0.47;;;28.30;41.90;;;;;;6314118;28;20603;-63
2021/08/17 10:20:18;;;;;;;0.73;0.40;;;28.10;43.10;;;;;;6315929;28;20236;-63
2021/08/17 10:23:24;;;;;;;1.10;0.50;;;28.20;43.60;;;;;;6314475;28;20248;-62
2021/08/17 10:26:30;;;;;;;1.47;0.63;;;28.20;42.80;;;;;;6314435;28;20237;-63
2021/08/17 10:29:34;;;;;;;0.60;0.27;;;28.20;43.40;;;;;;6314671;28;20324;-59
2021/08/17 10:32:43;;;;;;;1.80;0.63;;;28.30;41.90;;;;;;6311162;28;20230;-61
2021/08/17 10:35:56;;;;;;;1.00;0.70;;;28.40;42.20;;;;;;6315212;28;20222;-62
2021/08/17 10:39:03;;;;;;;1.10;0.73;;;28.40;42.00;;;;;;6301589;28;20230;-62
2021/08/17 10:42:23;;;;;;;1.20;0.90;;;28.40;42.10;;;;;;6306645;28;20295;-62
2021/08/17 10:45:28;;;;;;;0.90;0.70;;;28.30;40.80;;;;;;6304763;28;20533;-62
2021/08/17 10:48:54;;;;;;;1.07;0.60;;;28.40;41.50;;;;;;6313778;28;20237;-63
2021/08/17 10:51:59;;;;;;;1.17;0.63;;;28.40;42.00;;;;;;6301537;28;20284;-62
2021/08/17 10:55:27;;;;;;;0.90;0.50;;;28.40;40.90;;;;;;6313780;28;20234;-62
2021/08/17 10:58:40;;;;;;;1.57;0.93;;;28.30;41.10;;;;;;6300973;28;20232;-63
2021/08/17 11:01:46;;;;;;;1.20;0.80;;;28.10;41.80;;;;;;6301427;28;20237;-62
2021/08/17 11:04:50;;;;;;;1.20;1.10;;;28.20;40.80;;;;;;6300822;28;20307;-61
2021/08/17 11:07:53;;;;;;;1.33;0.97;;;28.20;40.90;;;;;;6313325;28;20233;-60
2021/08/17 11:10:58;;;;;;;1.57;1.10;;;28.20;41.30;;;;;;6325069;28;20248;-61
2021/08/17 11:14:07;;;;;;;1.10;0.83;;;28.00;41.00;;;;;;6340525;27;20230;-61
2021/08/17 11:17:12;;;;;;;1.30;0.60;;;27.90;40.80;;;;;;6300619;28;20237;-61
2021/08/17 11:20:16;;;;;;;1.63;1.10;;;28.00;40.80;;;;;;6300341;28;20615;-63
2021/08/17 11:23:20;;;;;;;1.77;1.00;;;28.30;40.70;;;;;;6298352;28;20672;-62
2021/08/17 11:26:32;;;;;;;1.53;1.00;;;28.60;39.40;;;;;;6310013;28;20233;-67
2021/08/17 11:29:40;;;;;;;2.10;1.20;;;28.80;39.80;;;;;;6298805;28;20237;-61
2021/08/17 11:32:45;;;;;;;1.97;1.33;;;29.00;38.90;;;;;;6298392;28;20235;-62
2021/08/17 11:35:49;;;;;;;1.80;1.70;;;28.70;37.40;;;;;;6309911;28;20240;-60
2021/08/17 11:38:52;;;;;;;1.30;0.73;;;28.70;38.40;;;;;;6312395;28;20249;-61
2021/08/17 11:41:57;;;;;;;1.53;0.87;;;28.70;39.50;;;;;;6312482;28;20240;-62
2021/08/17 11:45:04;;;;;;;1.40;1.07;;;28.60;38.90;;;;;;6312096;28;20229;-61
2021/08/17 11:48:07;;;;;;;1.40;1.00;;;28.70;38.40;;;;;;6300188;28;20256;-60
2021/08/17 11:51:10;;;;;;;1.83;1.40;;;28.80;38.90;;;;;;6304824;28;20709;-60
2021/08/17 11:54:14;;;;;;;2.03;1.17;;;28.90;38.10;;;;;;6312002;28;20229;-61
2021/08/17 11:57:21;;;;;;;1.70;1.00;;;29.10;37.70;;;;;;6332351;28;20235;-60
2021/08/17 12:00:26;;;;;;;1.90;1.23;;;28.70;38.30;;;;;;6319980;28;20226;-61
2021/08/17 12:03:29;;;;;;;1.70;1.30;;;28.50;38.60;;;;;;6312411;28;20222;-63
2021/08/17 12:06:32;;;;;;;3.00;1.00;;;28.60;38.40;;;;;;6312161;28;20218;-62
2021/08/17 12:09:37;;;;;;;3.60;1.30;;;28.50;38.30;;;;;;6312264;28;20209;-61
2021/08/17 12:13:04;;;;;;;2.10;0.90;;;28.40;37.70;;;;;;6299248;28;20659;-61
2021/08/17 12:16:08;;;;;;;1.37;1.03;;;28.40;37.70;;;;;;6311867;28;20238;-62
2021/08/17 12:19:17;;;;;;;1.90;1.33;;;28.70;38.20;;;;;;6312787;28;20233;-61
2021/08/17 12:22:22;;;;;;;2.00;1.27;;;29.00;37.40;;;;;;6311837;28;20228;-61
2021/08/17 12:25:28;;;;;;;2.03;1.67;;;29.20;36.90;;;;;;6299326;28;20229;-61
2021/08/17 12:28:35;;;;;;;1.77;1.13;;;29.10;36.70;;;;;;6298984;28;20237;-61
2021/08/17 12:31:38;;;;;;;1.80;1.40;;;28.90;36.90;;;;;;6304993;28;20225;-61
2021/08/17 12:34:44;;;;;;;2.53;1.40;;;28.60;37.00;;;;;;6336136;27;20221;-60
2021/08/17 12:37:49;;;;;;;2.40;1.17;;;28.20;37.10;;;;;;6310769;28;20230;-62
2021/08/17 12:40:54;;;;;;;1.70;1.30;;;28.00;38.80;;;;;;6324312;27;20217;-61
2021/08/17 12:44:00;;;;;;;2.00;1.50;;;28.00;37.70;;;;;;6339079;28;20218;-60
2021/08/17 12:47:10;;;;;;;1.70;1.27;;;28.00;37.80;;;;;;6335582;28;20241;-61
2021/08/17 12:50:14;;;;;;;3.50;1.60;;;28.00;38.10;;;;;;6328840;28;20261;-61
2021/08/17 12:53:19;;;;;;;2.50;1.43;;;28.20;38.40;;;;;;6310831;28;20230;-60
2021/08/17 12:56:22;;;;;;;2.00;1.40;;;28.20;38.60;;;;;;6284380;28;20237;-60
2021/08/17 12:59:27;;;;;;;2.33;2.03;;;28.10;38.40;;;;;;6298211;28;20261;-60
2021/08/17 13:02:30;;;;;;;3.10;1.90;;;27.90;38.30;;;;;;6298341;28;20229;-61
2021/08/17 13:05:33;;;;;;;1.70;1.50;;;28.00;39.10;;;;;;6314414;27;20234;-61
2021/08/17 13:08:37;;;;;;;2.13;1.93;;;28.00;38.10;;;;;;6298300;28;20241;-62
2021/08/17 13:11:40;;;;;;;3.00;1.67;;;28.20;39.10;;;;;;6298323;28;20230;-60
2021/08/17 13:14:45;;;;;;;1.70;1.40;;;28.10;38.10;;;;;;6298263;28;20306;-61
2021/08/17 13:17:48;;;;;;;1.97;1.53;;;28.20;39.90;;;;;;6301206;28;20252;-60
2021/08/17 13:20:52;;;;;;;1.70;1.03;;;28.30;38.00;;;;;;6310784;28;20367;-62
2021/08/17 13:23:57;;;;;;;1.60;1.23;;;28.40;37.30;;;;;;6310741;28;20691;-60
2021/08/17 13:27:00;;;;;;;1.77;1.40;;;28.30;37.00;;;;;;6310938;28;20229;-62
2021/08/17 13:30:06;;;;;;;1.90;1.50;;;28.20;37.70;;;;;;6310815;28;20323;-61
2021/08/17 13:33:10;;;;;;;2.53;1.77;;;28.00;37.70;;;;;;6310654;28;20229;-62
2021/08/17 13:36:13;;;;;;;2.37;1.50;;;27.80;38.60;;;;;;6309445;28;20240;-61
2021/08/17 13:39:17;;;;;;;2.70;1.63;;;27.80;38.90;;;;;;6312454;28;20225;-62
2021/08/17 13:42:23;;;;;;;2.23;1.53;;;27.90;38.10;;;;;;6310425;28;20225;-61
2021/08/17 13:45:27;;;;;;;2.53;1.80;;;27.90;38.20;;;;;;6308961;28;20218;-61
2021/08/17 13:48:32;;;;;;;2.37;1.93;;;27.80;39.00;;;;;;6310876;28;20574;-61
2021/08/17 13:51:35;;;;;;;3.87;1.80;;;28.00;38.60;;;;;;6315278;28;20235;-61
2021/08/17 13:54:38;;;;;;;2.43;1.50;;;28.10;37.60;;;;;;6314962;28;20206;-61
2021/08/17 13:57:45;;;;;;;2.43;1.53;;;28.10;37.40;;;;;;6305802;28;20241;-60
2021/08/17 14:00:50;;;;;;;3.30;1.80;;;28.00;38.00;;;;;;6315087;28;20516;-62
2021/08/17 14:03:54;;;;;;;2.43;1.70;;;27.90;38.50;;;;;;6315049;28;20234;-62
2021/08/17 14:06:57;;;;;;;1.97;1.57;;;27.80;38.00;;;;;;6323524;28;20633;-60
2021/08/17 14:10:00;;;;;;;2.03;1.67;;;27.80;39.80;;;;;;6315473;28;20675;-61
2021/08/17 14:13:04;;;;;;;2.20;1.50;;;27.90;41.70;;;;;;6321247;28;20228;-61
2021/08/17 14:16:09;;;;;;;2.47;1.63;;;27.90;37.90;;;;;;6314523;28;20253;-64
2021/08/17 14:19:13;;;;;;;2.40;1.57;;;28.00;40.50;;;;;;6313652;28;20572;-61
2021/08/17 14:22:16;;;;;;;2.80;1.63;;;28.20;40.90;;;;;;6314699;28;20230;-61
2021/08/17 14:25:19;;;;;;;2.90;1.80;;;28.40;38.90;;;;;;6309574;28;20225;-61
2021/08/17 14:28:22;;;;;;;4.20;2.03;;;28.60;39.70;;;;;;6310065;28;20682;-61
2021/08/17 14:31:28;;;;;;;4.67;2.60;;;28.80;39.90;;;;;;6314987;28;20690;-61
2021/08/17 14:34:31;;;;;;;2.77;1.83;;;28.90;38.40;;;;;;6316647;28;20225;-61
2021/08/17 14:37:34;;;;;;;1.90;1.20;;;28.80;38.70;;;;;;6301270;28;20237;-60
2021/08/17 14:40:37;;;;;;;2.30;1.50;;;28.70;37.60;;;;;;6301373;28;20668;-61
2021/08/17 14:43:41;;;;;;;2.00;1.50;;;28.50;37.70;;;;;;6301500;28;20237;-60
2021/08/17 14:46:45;;;;;;;2.27;1.40;;;28.50;37.30;;;;;;6309295;28;20234;-61
2021/08/17 14:49:48;;;;;;;2.83;1.67;;;28.20;37.40;;;;;;6314005;28;20234;-61
2021/08/17 14:52:51;;;;;;;2.90;1.53;;;27.90;39.50;;;;;;6313932;28;20245;-60
2021/08/17 14:55:54;;;;;;;1.77;1.50;;;27.40;41.20;;;;;;6313881;28;20252;-60
2021/08/17 14:58:58;;;;;;;2.10;1.80;;;27.20;42.30;;;;;;6310722;28;20229;-60
2021/08/17 15:02:03;;;;;;;3.00;2.33;;;26.90;42.10;;;;;;6303194;28;20230;-60
2021/08/17 15:05:07;;;;;;;1.77;1.27;;;26.80;42.00;;;;;;6301038;28;20252;-61
2021/08/17 15:08:10;;;;;;;2.00;1.30;;;26.80;41.00;;;;;;6300060;28;20238;-61
2021/08/17 15:11:13;;;;;;;2.03;1.47;;;26.80;41.60;;;;;;6303221;28;20248;-60
2021/08/17 15:14:17;;;;;;;3.20;2.10;;;26.90;41.60;;;;;;6313392;28;20232;-60
2021/08/17 15:17:21;;;;;;;4.57;1.80;;;27.10;41.60;;;;;;6300173;28;20675;-61
2021/08/17 15:20:25;;;;;;;2.23;1.50;;;27.40;41.90;;;;;;6300666;28;20234;-61
2021/08/17 15:23:28;;;;;;;1.80;1.53;;;27.40;42.40;;;;;;6301751;28;20218;-60
2021/08/17 15:26:31;;;;;;;1.60;1.30;;;27.30;42.50;;;;;;6312673;28;20230;-60
2021/08/17 15:29:36;;;;;;;1.57;1.27;;;27.20;43.20;;;;;;6312968;28;20237;-60
2021/08/17 15:32:42;;;;;;;2.57;1.50;;;26.90;44.20;;;;;;6312022;28;20226;-60
2021/08/17 15:35:45;;;;;;;2.87;1.77;;;26.60;50.30;;;;;;6313347;28;20226;-60
2021/08/17 15:38:48;;;;;;;2.10;1.57;;;26.40;52.50;;;;;;6311531;28;20701;-60
2021/08/17 15:41:52;;;;;;;3.20;1.83;;;26.30;54.30;;;;;;6329563;28;20221;-59
2021/08/17 15:44:55;;;;;;;2.23;1.63;;;26.00;55.20;;;;;;6319240;28;20678;-62
2021/08/17 15:47:59;;;;;;;2.10;1.70;;;25.80;55.70;;;;;;6317359;28;20218;-60
2021/08/17 15:51:03;;;;;;;2.10;1.90;;;25.70;56.00;;;;;;6312165;28;20693;-60
2021/08/17 15:54:06;;;;;;;2.40;1.67;;;25.70;56.10;;;;;;6312399;28;20229;-60
2021/08/17 15:57:11;;;;;;;1.70;1.47;;;25.50;58.10;;;;;;6299376;28;20230;-60
2021/08/17 16:00:16;;;;;;;2.80;1.87;;;25.30;59.20;;;;;;6299440;28;20246;-60
2021/08/17 16:03:21;;;;;;;1.90;1.60;;;25.40;60.10;;;;;;6299590;28;20241;-61